Time;durP1;ratioP1;P1;durP2;ratioP2;P2;SDS_P1;SDS_P2;PMS_P1;PMS_P2;Temp;Humidity;BMP_temperature;BMP_pressure;BME280_temperature;BME280_humidity;BME280_pressure;Samples;Min_cycle;Max_cycle;Signal;HPM_P1;HPM_P2
2022/05/12 00:00:17;;;;;;;0.40;0.40;;;24.10;41.70;;;26.01;34.01;100690.25;5052207;28;20592;-49
2022/05/12 00:02:45;;;;;;;0.50;0.50;;;24.10;41.70;;;26.02;34.72;100691.88;5052648;28;20284;-48
2022/05/12 00:05:16;;;;;;;0.77;0.60;;;24.10;41.70;;;26.02;34.64;100699.97;5053725;28;20205;-47
2022/05/12 00:07:44;;;;;;;0.80;0.50;;;24.10;41.70;;;26.02;34.70;100702.66;5038277;28;20213;-50
2022/05/12 00:10:14;;;;;;;0.53;0.53;;;24.10;41.70;;;26.02;34.00;100708.88;5038933;28;20205;-49
2022/05/12 00:12:43;;;;;;;0.57;0.50;;;24.10;41.80;;;26.03;34.52;100717.78;5042558;28;20222;-47
2022/05/12 00:15:19;;;;;;;0.60;0.60;;;24.10;41.80;;;26.00;34.68;100710.22;5053551;28;20202;-47
2022/05/12 00:17:46;;;;;;;0.50;0.50;;;24.10;41.80;;;26.02;34.32;100718.84;5051313;28;20681;-47
2022/05/12 00:20:19;;;;;;;0.63;0.60;;;24.10;41.80;;;26.01;34.54;100734.22;5046397;28;20192;-48
2022/05/12 00:22:47;;;;;;;0.50;0.50;;;24.10;41.80;;;26.02;34.08;100726.94;5054091;28;20194;-47
2022/05/12 00:25:18;;;;;;;0.60;0.60;;;24.00;41.80;;;26.01;34.04;100733.41;5053220;28;20248;-48
2022/05/12 00:27:45;;;;;;;0.50;0.50;;;24.00;41.80;;;26.00;34.81;100738.03;5053855;28;20213;-46
2022/05/12 00:30:15;;;;;;;0.57;0.53;;;24.10;41.80;;;26.00;34.79;100746.13;5039661;28;20211;-51
2022/05/12 00:32:46;;;;;;;1.50;0.50;;;24.10;41.90;;;26.02;34.34;100748.53;5052771;28;20204;-47
2022/05/12 00:35:16;;;;;;;0.40;0.40;;;24.10;41.90;;;26.02;34.73;100753.94;5038130;28;20198;-48
2022/05/12 00:37:44;;;;;;;0.63;0.50;;;24.10;41.90;;;26.02;34.12;100756.63;5033575;28;20190;-48
2022/05/12 00:40:15;;;;;;;0.50;0.50;;;24.10;41.90;;;26.00;34.74;100769.59;5050014;28;20193;-49
2022/05/12 00:42:57;;;;;;;0.60;0.60;;;24.10;41.90;;;25.97;34.74;100759.34;5053646;28;20190;-46
2022/05/12 00:45:28;;;;;;;0.47;0.47;;;24.10;42.00;;;26.00;34.84;100765.00;5053098;28;20224;-47
2022/05/12 00:47:56;;;;;;;0.50;0.50;;;24.10;41.90;;;26.01;34.23;100761.22;5053520;28;20228;-49
2022/05/12 00:50:29;;;;;;;0.60;0.60;;;24.10;41.90;;;26.00;34.86;100769.59;5045493;28;20194;-47
2022/05/12 00:53:00;;;;;;;0.60;0.60;;;24.10;41.90;;;26.03;34.15;100782.53;5042470;28;20194;-50
2022/05/12 00:55:34;;;;;;;0.50;0.50;;;24.00;41.80;;;25.99;34.83;100784.97;5053057;28;20220;-46
2022/05/12 00:58:06;;;;;;;0.50;0.50;;;24.10;41.90;;;26.01;34.20;100787.38;5053503;28;20201;-46
2022/05/12 01:00:36;;;;;;;0.60;0.60;;;24.10;41.90;;;26.01;34.75;100792.78;5053239;28;20204;-47
2022/05/12 01:03:10;;;;;;;0.50;0.50;;;24.00;41.80;;;25.99;34.23;100800.34;5053305;28;20198;-46
2022/05/12 01:05:39;;;;;;;0.50;0.50;;;24.10;41.80;;;26.02;34.72;100794.41;5052242;28;20220;-45
2022/05/12 01:08:09;;;;;;;0.50;0.50;;;24.10;41.80;;;25.99;34.24;100800.34;5045971;28;20232;-46
2022/05/12 01:10:39;;;;;;;0.40;0.40;;;24.10;41.80;;;26.02;34.10;100799.81;5044377;28;20216;-47
2022/05/12 01:13:06;;;;;;;0.47;0.47;;;24.00;41.70;;;26.01;34.09;100808.97;5033378;28;20190;-49
2022/05/12 01:15:35;;;;;;;0.30;0.30;;;24.00;41.70;;;26.00;34.73;100818.16;5032927;28;20210;-47
2022/05/12 01:18:07;;;;;;;0.33;0.33;;;24.10;41.70;;;26.00;34.12;100821.69;5048692;28;20189;-47
2022/05/12 01:20:35;;;;;;;0.40;0.40;;;24.10;41.80;;;26.02;34.53;100829.50;5053317;28;20201;-46
2022/05/12 01:23:14;;;;;;;0.63;0.63;;;24.00;41.70;;;26.02;33.88;100840.28;5052999;28;20618;-46
2022/05/12 01:25:41;;;;;;;0.63;0.50;;;24.10;41.70;;;26.01;34.58;100857.53;5050787;28;20260;-46
2022/05/12 01:28:09;;;;;;;0.43;0.43;;;24.10;41.70;;;26.00;33.95;100855.94;5045012;28;20217;-46
2022/05/12 01:30:36;;;;;;;0.43;0.43;;;24.00;41.60;;;26.00;34.28;100866.75;5046066;28;20597;-46
2022/05/12 01:33:04;;;;;;;0.60;0.60;;;24.10;41.70;;;26.01;34.62;100882.66;5049000;28;20253;-46
2022/05/12 01:35:32;;;;;;;0.40;0.40;;;24.00;41.60;;;26.01;34.01;100882.66;5032607;28;20245;-47
2022/05/12 01:38:00;;;;;;;0.43;0.43;;;24.10;41.70;;;26.00;34.38;100893.72;5033105;28;20611;-47
2022/05/12 01:40:29;;;;;;;0.67;0.50;;;24.00;41.60;;;25.99;34.55;100914.50;5036882;28;20193;-47
2022/05/12 01:42:56;;;;;;;0.30;0.30;;;24.00;41.60;;;26.00;34.50;100916.13;5051966;28;20193;-48
2022/05/12 01:45:24;;;;;;;0.50;0.50;;;24.00;41.60;;;26.01;33.88;100923.13;5048306;28;20701;-48
2022/05/12 01:47:52;;;;;;;0.57;0.57;;;24.00;41.60;;;26.01;34.10;100938.50;5032979;28;20218;-47
2022/05/12 01:50:21;;;;;;;0.60;0.60;;;24.00;41.60;;;26.01;34.42;100949.28;5032751;28;20190;-48
2022/05/12 01:52:49;;;;;;;0.50;0.50;;;24.00;41.60;;;25.98;34.47;100950.63;5032998;28;20186;-46
2022/05/12 01:55:20;;;;;;;0.50;0.50;;;24.00;41.60;;;26.00;34.31;100964.69;5047927;28;20685;-46
2022/05/12 01:57:49;;;;;;;1.80;0.57;;;24.00;41.60;;;25.99;34.47;100981.13;5050395;28;20194;-47
2022/05/12 02:00:21;;;;;;;0.43;0.43;;;24.00;41.50;;;25.99;34.06;100986.53;5048207;28;20187;-46
2022/05/12 02:02:49;;;;;;;0.70;0.53;;;24.10;41.60;;;25.99;33.65;100997.31;5041985;28;20186;-47
2022/05/12 02:05:17;;;;;;;0.50;0.47;;;24.00;41.50;;;25.98;34.55;100999.22;5031672;28;20233;-46
2022/05/12 02:07:47;;;;;;;0.40;0.40;;;24.00;41.50;;;25.98;34.73;101014.63;5032737;28;20218;-46
2022/05/12 02:10:19;;;;;;;0.30;0.30;;;24.00;41.50;;;25.97;33.90;101023.78;5032076;28;20201;-47
2022/05/12 02:12:48;;;;;;;0.63;0.60;;;24.00;41.50;;;25.97;34.56;101026.47;5033389;28;20202;-46
2022/05/12 02:15:16;;;;;;;0.40;0.40;;;24.00;41.50;;;25.98;34.06;101031.59;5037383;28;20190;-47
2022/05/12 02:17:43;;;;;;;0.30;0.30;;;24.00;41.50;;;25.98;33.90;101041.59;5059206;28;20198;-46
2022/05/12 02:20:13;;;;;;;0.47;0.40;;;24.00;41.50;;;25.96;34.02;101051.84;5056180;28;20194;-47
2022/05/12 02:22:41;;;;;;;0.30;0.30;;;24.00;41.50;;;25.97;33.88;101064.25;5056027;28;20186;-46
2022/05/12 02:25:10;;;;;;;0.40;0.40;;;24.00;41.50;;;25.97;34.40;101066.94;5055908;28;20193;-48
2022/05/12 02:27:42;;;;;;;0.50;0.50;;;24.00;41.50;;;25.97;34.33;101073.16;5051027;28;20573;-49
2022/05/12 02:30:16;;;;;;;0.40;0.40;;;24.00;41.50;;;25.97;34.50;101080.44;5037367;28;20182;-50
2022/05/12 02:32:43;;;;;;;0.40;0.40;;;24.00;41.40;;;25.95;33.71;101101.50;5036235;28;20194;-46
2022/05/12 02:35:11;;;;;;;0.47;0.47;;;24.00;41.40;;;25.97;33.95;101100.16;5036851;28;20190;-47
2022/05/12 02:37:39;;;;;;;0.53;0.53;;;24.00;41.40;;;25.96;34.05;101109.31;5035999;28;20632;-47
2022/05/12 02:40:10;;;;;;;0.40;0.40;;;24.00;41.40;;;25.95;33.91;101114.97;5051899;28;20190;-47
2022/05/12 02:42:37;;;;;;;0.40;0.40;;;24.00;41.40;;;25.95;34.52;101113.09;5056030;28;20209;-47
2022/05/12 02:45:07;;;;;;;0.37;0.37;;;24.00;41.40;;;25.95;33.87;101129.28;5037954;28;20187;-47
2022/05/12 02:47:37;;;;;;;0.70;0.40;;;24.00;42.00;;;25.95;33.95;101129.28;5036986;28;20214;-47
2022/05/12 02:50:07;;;;;;;0.47;0.47;;;24.00;41.40;;;25.95;34.52;101133.88;5035869;28;20198;-46
2022/05/12 02:52:34;;;;;;;0.30;0.30;;;24.00;41.40;;;25.94;34.45;101143.03;5036804;28;20209;-47
2022/05/12 02:55:01;;;;;;;0.40;0.40;;;24.00;41.40;;;25.95;34.30;101144.66;5048611;28;20193;-46
2022/05/12 02:57:29;;;;;;;0.40;0.40;;;24.00;41.30;;;25.93;33.72;101150.34;5055583;28;20193;-47
2022/05/12 02:59:56;;;;;;;0.67;0.40;;;24.00;41.30;;;25.93;33.87;101150.34;5045916;28;20557;-48
2022/05/12 03:02:23;;;;;;;0.40;0.40;;;24.00;41.30;;;25.92;34.15;101155.97;5053635;28;20213;-48
2022/05/12 03:04:52;;;;;;;0.40;0.40;;;24.00;41.30;;;25.93;33.70;101158.44;5043500;28;20667;-47
2022/05/12 03:07:19;;;;;;;0.30;0.30;;;24.00;41.30;;;25.93;33.89;101168.41;5035425;28;20695;-47
2022/05/12 03:09:46;;;;;;;0.40;0.40;;;24.00;41.30;;;25.92;33.72;101167.59;5035712;28;20198;-47
2022/05/12 03:12:14;;;;;;;0.60;0.57;;;24.00;41.30;;;25.92;33.99;101167.59;5035309;28;20266;-46
2022/05/12 03:14:41;;;;;;;0.30;0.30;;;24.00;41.20;;;25.92;34.13;101174.88;5051416;28;20198;-47
2022/05/12 03:17:08;;;;;;;0.30;0.30;;;24.00;41.20;;;25.91;33.80;101173.25;5053501;28;20662;-46
2022/05/12 03:19:36;;;;;;;0.20;0.20;;;24.00;41.20;;;25.92;33.72;101181.09;5055177;28;20186;-47
2022/05/12 03:22:05;;;;;;;0.33;0.33;;;24.00;41.20;;;25.91;33.66;101192.16;5053631;28;20550;-47
2022/05/12 03:24:33;;;;;;;0.40;0.40;;;24.00;41.20;;;25.91;34.41;101187.53;5053847;28;20200;-47
2022/05/12 03:27:00;;;;;;;0.30;0.30;;;24.00;41.20;;;25.91;34.31;101197.56;5054259;28;20283;-47
2022/05/12 03:29:28;;;;;;;0.40;0.40;;;24.00;41.20;;;25.91;33.66;101206.44;5054132;28;20248;-47
2022/05/12 03:31:55;;;;;;;0.50;0.50;;;24.00;41.20;;;25.91;33.74;101202.94;5048454;28;20213;-46
2022/05/12 03:34:22;;;;;;;0.40;0.40;;;24.00;41.20;;;25.89;33.63;101216.69;5035103;28;20239;-46
2022/05/12 03:36:49;;;;;;;0.30;0.30;;;24.00;41.20;;;25.91;33.61;101219.13;5034660;28;20218;-46
2022/05/12 03:39:20;;;;;;;0.30;0.30;;;24.00;41.20;;;25.89;34.30;101215.88;5044430;28;20194;-46
2022/05/12 03:41:47;;;;;;;0.30;0.30;;;24.00;41.10;;;25.89;34.26;101226.66;5053418;28;20195;-46
2022/05/12 03:47:00;;;;;;;0.30;0.30;;;24.00;41.00;;;25.88;33.69;101227.75;5053893;28;20213;-46
2022/05/12 03:49:28;;;;;;;0.40;0.40;;;24.00;41.00;;;25.86;33.86;101232.59;5053512;28;20231;-48
2022/05/12 03:51:55;;;;;;;0.40;0.40;;;24.00;41.00;;;25.87;33.51;101234.22;5054551;28;20197;-47
2022/05/12 03:54:23;;;;;;;0.30;0.30;;;24.00;41.00;;;25.87;33.51;101234.22;5047663;28;20201;-47
2022/05/12 03:56:51;;;;;;;0.53;0.40;;;23.90;40.90;;;25.87;34.09;101242.31;5034131;28;20578;-47
2022/05/12 03:59:18;;;;;;;0.30;0.30;;;23.90;40.90;;;25.87;34.21;101250.41;5035542;28;20183;-47
2022/05/12 04:01:45;;;;;;;0.40;0.30;;;24.00;41.60;;;25.88;33.51;101252.03;5034927;28;20206;-47
2022/05/12 04:04:13;;;;;;;0.40;0.40;;;24.00;41.00;;;25.87;34.03;101255.78;5044821;28;20205;-47
2022/05/12 04:06:42;;;;;;;0.30;0.30;;;23.90;40.80;;;25.86;33.92;101259.59;5053870;28;20210;-46
2022/05/12 04:09:09;;;;;;;0.50;0.50;;;23.90;40.80;;;25.87;34.03;101264.69;5053395;28;20297;-46
2022/05/12 04:11:37;;;;;;;0.40;0.40;;;23.90;40.80;;;25.88;33.51;101270.91;5052299;28;20193;-47
2022/05/12 04:14:05;;;;;;;0.40;0.40;;;23.90;40.80;;;25.88;34.10;101284.41;5054426;28;20630;-46
2022/05/12 04:16:32;;;;;;;0.47;0.47;;;23.90;40.80;;;25.87;34.13;101278.19;5051452;28;20217;-47
2022/05/12 04:19:00;;;;;;;0.40;0.40;;;23.90;41.50;;;25.87;33.58;101291.69;5054161;28;20215;-46
2022/05/12 04:21:30;;;;;;;0.30;0.30;;;23.90;40.80;;;25.86;33.99;101292.78;5044330;28;20197;-47
2022/05/12 04:23:57;;;;;;;0.40;0.40;;;23.90;40.80;;;25.86;34.10;101297.34;5034456;28;20632;-47
2022/05/12 04:26:24;;;;;;;0.50;0.50;;;23.90;40.80;;;25.85;33.51;101301.13;5033650;28;20214;-45
2022/05/12 04:28:53;;;;;;;0.30;0.30;;;23.90;40.80;;;25.86;33.42;101308.16;5034984;28;20225;-48
2022/05/12 04:31:20;;;;;;;0.37;0.37;;;23.90;40.80;;;25.86;34.00;101305.44;5043520;28;20204;-47
2022/05/12 04:36:33;;;;;;;0.40;0.40;;;23.90;40.70;;;25.85;33.86;101314.59;5044496;28;20230;-46
2022/05/12 04:39:03;;;;;;;0.23;0.23;;;23.90;40.70;;;25.87;33.41;101320.53;5053944;28;20520;-46
2022/05/12 04:41:30;;;;;;;0.40;0.40;;;23.90;40.70;;;25.85;34.08;101320.81;5053626;28;20201;-47
2022/05/12 04:43:59;;;;;;;0.40;0.40;;;23.90;40.70;;;25.87;33.49;101321.38;5050156;28;20239;-46
2022/05/12 04:46:27;;;;;;;0.37;0.37;;;23.90;40.70;;;25.86;33.49;101329.72;5042960;28;20304;-48
2022/05/12 04:48:55;;;;;;;0.30;0.30;;;23.90;40.70;;;25.87;33.86;101336.72;5053448;28;20248;-46
2022/05/12 04:51:22;;;;;;;0.30;0.30;;;23.90;40.70;;;25.84;33.35;101343.47;5039600;28;20194;-47
2022/05/12 04:53:50;;;;;;;0.30;0.30;;;23.90;40.70;;;25.86;33.51;101345.91;5037113;28;20189;-47
2022/05/12 04:56:17;;;;;;;0.30;0.30;;;23.90;40.70;;;25.87;34.08;101350.22;5052894;28;20206;-48
2022/05/12 04:58:44;;;;;;;0.40;0.40;;;23.90;40.70;;;25.85;33.63;101349.69;5053369;28;20186;-46
2022/05/12 05:01:13;;;;;;;0.30;0.30;;;23.90;40.70;;;25.84;34.06;101351.56;5042829;28;20727;-47
2022/05/12 05:03:42;;;;;;;0.40;0.40;;;23.90;40.70;;;25.84;33.38;101354.25;5033682;28;20277;-46
2022/05/12 05:06:10;;;;;;;0.40;0.40;;;23.90;40.70;;;25.85;34.03;101360.47;5039606;28;20240;-46
2022/05/12 05:08:38;;;;;;;0.40;0.40;;;23.90;40.70;;;25.85;33.83;101372.09;5050475;28;20216;-46
2022/05/12 05:11:06;;;;;;;0.20;0.20;;;23.90;40.70;;;25.85;33.94;101371.25;5052858;28;20186;-47
2022/05/12 05:13:33;;;;;;;0.40;0.40;;;23.90;40.70;;;25.84;33.25;101372.34;5053330;28;20241;-47
2022/05/12 05:16:02;;;;;;;0.30;0.30;;;23.90;40.70;;;25.84;33.92;101380.44;5052743;28;20229;-46
2022/05/12 05:18:31;;;;;;;0.40;0.40;;;23.90;40.70;;;25.86;33.40;101391.78;5038346;28;20194;-46
2022/05/12 05:20:59;;;;;;;0.40;0.40;;;23.90;40.60;;;25.84;33.34;101396.63;5048735;28;20201;-47
2022/05/12 05:23:26;;;;;;;0.40;0.40;;;23.90;40.60;;;25.83;33.32;101395.81;5051595;28;20211;-46
2022/05/12 05:25:53;;;;;;;0.60;0.60;;;23.90;40.60;;;25.83;33.39;101398.50;5034864;28;20222;-46
2022/05/12 05:28:21;;;;;;;0.40;0.40;;;23.90;40.60;;;25.82;33.38;101398.75;5032955;28;20241;-46
2022/05/12 05:30:49;;;;;;;0.40;0.40;;;23.90;40.60;;;25.84;33.91;101399.34;5033040;28;20278;-46
2022/05/12 05:33:18;;;;;;;0.30;0.30;;;23.90;40.60;;;25.83;33.68;101405.78;5039136;28;20605;-47
2022/05/12 05:35:47;;;;;;;0.40;0.40;;;23.90;40.50;;;25.84;33.41;101400.13;5035077;28;20230;-47
2022/05/12 05:38:14;;;;;;;0.40;0.40;;;23.90;40.60;;;25.84;33.84;101412.81;5033040;28;20191;-46
2022/05/12 05:40:42;;;;;;;0.40;0.40;;;23.90;40.60;;;25.85;33.91;101422.53;5052253;28;20200;-47
2022/05/12 05:43:14;;;;;;;0.30;0.30;;;23.90;40.60;;;25.84;33.91;101421.72;5044590;28;20201;-46
2022/05/12 05:45:41;;;;;;;0.30;0.30;;;23.90;40.50;;;25.84;33.66;101427.09;5052377;28;20804;-46
2022/05/12 05:48:09;;;;;;;0.30;0.30;;;23.90;40.50;;;25.82;33.25;101429.25;5052630;28;20300;-47
2022/05/12 05:53:33;;;;;;;0.20;0.20;;;23.90;40.50;;;25.81;33.41;101445.72;5056357;28;20685;-47
2022/05/12 05:56:04;;;;;;;0.30;0.30;;;23.90;40.50;;;25.82;33.23;101444.63;5056582;28;20618;-49
2022/05/12 05:58:32;;;;;;;0.30;0.30;;;23.90;40.50;;;25.81;33.89;101451.91;5043101;28;20197;-48
2022/05/12 06:01:00;;;;;;;0.50;0.50;;;23.90;40.50;;;25.83;33.75;101459.75;5042382;28;20197;-47
2022/05/12 06:03:28;;;;;;;0.37;0.37;;;23.90;41.10;;;25.82;33.21;101464.31;5056455;28;20266;-47
2022/05/12 06:05:56;;;;;;;0.30;0.30;;;23.90;40.40;;;25.83;33.30;101473.25;5055717;28;20221;-46
2022/05/12 06:08:23;;;;;;;0.40;0.40;;;23.90;40.40;;;25.83;33.22;101473.25;5054655;28;20210;-46
2022/05/12 06:11:04;;;;;;;2.10;0.47;;;23.90;40.40;;;25.83;33.75;101473.25;5056447;28;20669;-46
2022/05/12 06:13:33;;;;;;;0.40;0.40;;;23.90;40.40;;;25.83;33.33;101478.63;5056233;28;20719;-45
2022/05/12 06:16:02;;;;;;;0.27;0.27;;;23.90;40.40;;;25.83;33.56;101484.03;5053802;28;20216;-47
2022/05/12 06:18:30;;;;;;;0.53;0.53;;;23.90;40.50;;;25.84;34.00;101482.97;5055956;28;20734;-46
2022/05/12 06:20:58;;;;;;;0.20;0.20;;;23.90;40.40;;;25.83;33.34;101486.72;5048815;28;20190;-46
2022/05/12 06:23:25;;;;;;;0.40;0.40;;;23.90;40.40;;;25.83;33.77;101489.44;5037399;28;20202;-47
2022/05/12 06:25:52;;;;;;;0.40;0.40;;;23.90;40.40;;;25.84;33.70;101496.47;5035915;28;20237;-47
2022/05/12 06:28:21;;;;;;;0.33;0.33;;;23.90;40.40;;;25.85;33.32;101503.47;5036032;28;20218;-47
2022/05/12 06:30:48;;;;;;;0.40;0.40;;;23.90;40.40;;;25.84;33.79;101496.47;5039118;28;20206;-48
2022/05/12 06:33:17;;;;;;;0.30;0.30;;;23.90;40.50;;;25.83;33.63;101503.75;5035595;28;20225;-46
2022/05/12 06:35:47;;;;;;;0.47;0.47;;;23.90;40.50;;;25.85;33.75;101503.47;5052187;28;20217;-47
2022/05/12 06:38:15;;;;;;;0.40;0.40;;;23.90;40.50;;;25.84;33.34;101510.75;5036898;28;20252;-49
2022/05/12 06:40:42;;;;;;;0.40;0.40;;;23.90;40.50;;;25.83;33.15;101509.13;5054186;28;20201;-47
2022/05/12 06:43:11;;;;;;;0.30;0.30;;;23.90;40.40;;;25.85;33.70;101522.34;5055523;28;20269;-51
2022/05/12 06:45:40;;;;;;;0.50;0.50;;;23.90;40.40;;;25.84;33.83;101520.75;5055266;28;20209;-49
2022/05/12 06:48:09;;;;;;;0.20;0.20;;;23.90;40.40;;;25.84;33.16;101521.53;5051774;28;20202;-48
2022/05/12 06:50:36;;;;;;;0.47;0.47;;;23.90;40.40;;;25.84;33.39;101526.16;5042997;28;20202;-48
2022/05/12 06:53:05;;;;;;;0.33;0.33;;;23.90;40.40;;;25.84;33.32;101526.16;5055271;28;20190;-48
2022/05/12 06:55:32;;;;;;;0.40;0.40;;;23.90;40.40;;;25.84;33.70;101532.31;5055196;28;20264;-46
2022/05/12 06:57:59;;;;;;;0.30;0.30;;;23.90;40.40;;;25.83;33.71;101540.69;5045268;28;20646;-46
2022/05/12 07:00:27;;;;;;;0.40;0.40;;;23.90;40.40;;;25.84;33.87;101542.34;5036616;28;20551;-48
2022/05/12 07:02:56;;;;;;;0.40;0.30;;;23.90;40.40;;;25.86;33.57;101551.81;5054419;28;20281;-49
2022/05/12 07:05:26;;;;;;;0.30;0.30;;;23.90;40.40;;;25.85;33.41;101554.72;5037586;28;20241;-49
2022/05/12 07:07:54;;;;;;;0.40;0.40;;;23.90;40.40;;;25.85;33.59;101563.66;5035028;28;20191;-48
2022/05/12 07:10:24;;;;;;;0.33;0.33;;;23.90;40.40;;;25.85;33.08;101566.34;5034193;28;20627;-47
2022/05/12 07:12:52;;;;;;;0.37;0.37;;;23.90;40.40;;;25.85;33.08;101570.94;5035503;28;20206;-45
2022/05/12 07:15:25;;;;;;;0.50;0.50;;;23.90;40.40;;;25.83;33.86;101562.28;5036353;28;20242;-48
2022/05/12 07:17:53;;;;;;;0.50;0.30;;;23.90;40.40;;;25.84;33.38;101574.72;5038210;28;20206;-48
2022/05/12 07:28:45;;;;;;;0.83;0.60;;;23.90;40.30;;;25.83;33.31;101578.47;5039050;28;20210;-47
2022/05/12 07:31:13;;;;;;;0.63;0.63;;;23.90;40.20;;;25.86;33.18;101583.34;5038367;28;20202;-47
2022/05/12 07:33:43;;;;;;;0.73;0.63;;;23.90;40.20;;;25.85;33.15;101581.72;5039459;28;21092;-46
2022/05/12 07:36:14;;;;;;;0.60;0.60;;;23.90;40.20;;;25.87;33.58;101590.38;5040325;28;20234;-47
2022/05/12 07:38:43;;;;;;;0.50;0.50;;;23.90;40.30;;;25.86;33.74;101592.28;5040373;28;20201;-48
2022/05/12 07:41:12;;;;;;;0.70;0.70;;;23.90;40.30;;;25.86;33.59;101602.25;5040380;28;20200;-46
2022/05/12 07:43:41;;;;;;;0.50;0.50;;;23.90;40.20;;;25.85;33.69;101603.31;5040884;28;20313;-46
2022/05/12 07:46:12;;;;;;;1.47;1.00;;;24.00;40.30;;;25.85;33.65;101604.13;5040323;28;20213;-47
2022/05/12 07:48:40;;;;;;;0.70;0.70;;;23.90;40.10;;;25.85;33.15;101597.91;5041214;28;20225;-48
2022/05/12 07:51:09;;;;;;;0.50;0.43;;;24.00;40.20;;;25.86;33.21;101603.06;5040361;28;20193;-47
2022/05/12 07:53:38;;;;;;;0.50;0.50;;;24.00;40.20;;;25.85;33.73;101603.31;5041509;28;20237;-47
2022/05/12 07:56:08;;;;;;;0.63;0.60;;;23.90;40.20;;;25.86;33.78;101607.66;5038213;28;20222;-46
2022/05/12 07:58:36;;;;;;;0.93;0.50;;;24.00;40.30;;;25.86;33.66;101610.34;5040264;28;20201;-46
2022/05/12 08:01:05;;;;;;;0.57;0.53;;;23.90;40.30;;;25.87;33.89;101595.75;5040259;28;20201;-46
2022/05/12 08:03:34;;;;;;;2.00;0.40;;;24.00;40.50;;;25.87;33.55;101610.06;5039014;28;20210;-47
2022/05/12 08:06:02;;;;;;;0.40;0.40;;;24.00;40.40;;;25.87;33.82;101611.94;5034913;28;20584;-47
2022/05/12 08:08:30;;;;;;;0.50;0.33;;;24.00;40.40;;;25.88;33.23;101610.91;5039127;28;20213;-46
2022/05/12 08:10:59;;;;;;;0.47;0.47;;;24.00;40.40;;;25.90;33.83;101622.25;5038858;28;20190;-45
2022/05/12 08:13:27;;;;;;;0.33;0.33;;;24.00;40.30;;;25.87;33.43;101623.56;5038051;28;20208;-48
2022/05/12 08:15:55;;;;;;;0.50;0.50;;;24.00;40.30;;;25.89;33.36;101626.00;5038243;28;20226;-46
2022/05/12 08:18:25;;;;;;;0.40;0.40;;;24.00;40.30;;;25.89;33.10;101620.59;5040489;28;20202;-46
2022/05/12 08:20:54;;;;;;;0.83;0.40;;;24.00;40.40;;;25.91;33.19;101623.88;5035159;28;20206;-45
2022/05/12 08:23:22;;;;;;;0.50;0.50;;;24.00;40.30;;;25.94;33.73;101634.16;5038473;28;20198;-47
2022/05/12 08:25:51;;;;;;;0.53;0.40;;;24.00;40.40;;;25.92;33.74;101630.91;5039359;28;20226;-45
2022/05/12 08:28:27;;;;;;;0.40;0.40;;;24.00;40.30;;;25.92;33.72;101625.50;5034624;28;20264;-47
2022/05/12 08:30:55;;;;;;;0.40;0.40;;;24.00;40.40;;;25.94;33.81;101628.75;5037820;28;20205;-47
2022/05/12 08:33:24;;;;;;;0.50;0.50;;;24.00;40.20;;;25.93;33.17;101627.97;5039813;28;20225;-46
2022/05/12 08:35:51;;;;;;;0.40;0.40;;;24.00;40.20;;;25.96;33.13;101632.03;5039407;28;21120;-47
2022/05/12 08:38:21;;;;;;;0.83;0.50;;;24.00;40.10;;;25.95;33.80;101641.19;5036926;28;20194;-47
2022/05/12 08:41:09;;;;;;;0.60;0.60;;;24.00;40.10;;;25.91;33.62;101638.19;5038251;28;20199;-46
2022/05/12 08:43:51;;;;;;;0.60;0.60;;;24.10;40.10;;;25.90;33.00;101639.25;5038252;28;20210;-46
2022/05/12 08:46:23;;;;;;;0.60;0.60;;;24.10;40.10;;;25.97;33.04;101641.75;5039841;28;20674;-45
2022/05/12 08:49:03;;;;;;;1.80;0.57;;;24.10;40.10;;;25.94;33.81;101644.94;5038250;28;20228;-45
2022/05/12 08:51:36;;;;;;;0.40;0.40;;;24.10;40.10;;;25.97;33.10;101645.28;5037498;28;20201;-46
2022/05/12 08:54:11;;;;;;;0.50;0.50;;;24.10;40.10;;;25.98;33.06;101646.09;5037659;28;20206;-48
2022/05/12 08:56:39;;;;;;;0.77;0.67;;;24.10;40.10;;;25.99;33.53;101653.94;5038098;28;20221;-46
2022/05/12 08:59:08;;;;;;;0.33;0.33;;;24.10;40.10;;;26.00;33.00;101650.16;5038387;28;20197;-46
2022/05/12 09:01:54;;;;;;;0.70;0.50;;;24.10;40.10;;;25.97;33.49;101641.75;5037618;28;20202;-49
2022/05/12 09:04:58;;;;;;;0.50;0.50;;;24.10;40.10;;;25.94;33.20;101644.94;5036938;28;20217;-46
2022/05/12 09:07:32;;;;;;;1.40;0.50;;;24.10;40.00;;;26.02;33.05;101655.31;5034699;28;20200;-46
2022/05/12 09:10:13;;;;;;;0.70;0.70;;;24.10;40.00;;;25.99;32.98;101653.94;5037178;28;20214;-47
2022/05/12 09:12:49;;;;;;;1.17;0.47;;;24.10;40.00;;;26.02;32.73;101647.19;5036526;28;20658;-45
2022/05/12 09:15:26;;;;;;;2.47;0.70;;;24.10;40.00;;;26.02;33.30;101660.69;5039579;28;20225;-47
2022/05/12 09:17:58;;;;;;;0.50;0.50;;;24.10;39.90;;;26.05;33.45;101657.50;5037772;28;20214;-47
2022/05/12 09:20:30;;;;;;;0.60;0.47;;;24.10;40.00;;;26.06;33.29;101669.91;5036438;28;20585;-48
2022/05/12 09:22:59;;;;;;;1.80;0.63;;;24.10;39.90;;;26.06;32.83;101659.94;5039274;28;20220;-46
2022/05/12 09:25:34;;;;;;;1.40;0.70;;;24.10;39.90;;;26.05;33.05;101665.59;5037545;28;20758;-47
2022/05/12 09:28:24;;;;;;;0.87;0.57;;;24.10;39.80;;;26.02;32.71;101658.81;5041951;28;20213;-50
2022/05/12 09:30:55;;;;;;;1.93;0.90;;;24.10;39.80;;;26.08;32.94;101662.38;5043013;28;20249;-46
2022/05/12 09:33:31;;;;;;;0.40;0.40;;;24.10;39.80;;;26.07;32.70;101666.16;5041409;28;20198;-46
2022/05/12 09:36:02;;;;;;;1.40;0.43;;;24.10;39.80;;;26.09;33.10;101672.09;5042267;28;20240;-46
2022/05/12 09:38:30;;;;;;;0.80;0.60;;;24.10;39.70;;;26.09;32.59;101664.00;5040774;28;20207;-48
2022/05/12 09:41:00;;;;;;;0.93;0.50;;;24.10;39.70;;;26.09;33.26;101658.63;5038514;28;20206;-47
2022/05/12 09:43:31;;;;;;;1.57;0.50;;;24.10;39.70;;;26.10;33.20;101661.06;5040248;28;20198;-48
2022/05/12 09:46:13;;;;;;;0.83;0.70;;;24.10;39.60;;;26.09;32.50;101661.31;5042470;28;20731;-47
2022/05/12 09:48:41;;;;;;;0.60;0.60;;;24.10;39.60;;;26.09;33.00;101664.84;5043643;28;20197;-46
2022/05/12 09:51:23;;;;;;;2.57;0.80;;;24.20;39.50;;;26.07;33.01;101655.34;5040876;28;20203;-47
2022/05/12 09:53:53;;;;;;;1.77;0.70;;;24.20;39.50;;;26.11;32.66;101653.81;5040640;28;20216;-47
2022/05/12 09:56:31;;;;;;;1.17;0.60;;;24.20;39.50;;;26.09;32.66;101664.00;5039944;28;20228;-48
2022/05/12 09:59:10;;;;;;;2.23;0.70;;;24.20;39.30;;;26.10;32.41;101660.25;5041259;28;20205;-47
2022/05/12 10:01:53;;;;;;;1.33;0.70;;;24.20;39.30;;;26.07;33.20;101655.34;5036849;28;20650;-48
2022/05/12 10:10:13;;;;;;;0.87;0.60;;;24.20;39.20;;;26.10;32.98;101657.56;5040063;28;20233;-47
2022/05/12 10:12:54;;;;;;;0.83;0.60;;;24.20;39.20;;;26.11;32.80;101654.63;5041922;28;20200;-45
2022/05/12 10:15:28;;;;;;;0.80;0.50;;;24.20;39.30;;;26.13;32.86;101660.56;5040741;28;20220;-49
2022/05/12 10:18:03;;;;;;;0.77;0.77;;;24.20;39.30;;;26.13;32.34;101659.75;5041258;28;20966;-45
2022/05/12 10:20:38;;;;;;;2.53;0.73;;;24.20;39.20;;;26.16;32.72;101653.84;5041823;28;20212;-44
2022/05/12 10:23:19;;;;;;;1.47;0.83;;;24.30;39.40;;;26.15;32.30;101657.59;5042966;28;20197;-44
2022/05/12 10:26:02;;;;;;;1.77;0.70;;;24.30;39.30;;;26.14;32.89;101654.13;5037586;28;20765;-49
2022/05/12 10:28:49;;;;;;;5.23;1.00;;;24.30;39.20;;;26.16;32.89;101661.94;5039063;28;20709;-45
2022/05/12 10:31:26;;;;;;;3.07;0.80;;;24.30;39.20;;;26.18;32.72;101649.00;5040372;28;20308;-46
2022/05/12 10:34:27;;;;;;;3.13;0.80;;;24.30;39.10;;;26.15;32.71;101654.91;5042786;28;20205;-47
2022/05/12 10:37:07;;;;;;;0.70;0.63;;;24.30;39.10;;;26.19;32.49;101661.44;5038817;28;20234;-45
2022/05/12 10:39:50;;;;;;;2.43;0.70;;;24.30;39.10;;;26.19;32.09;101658.75;5039840;28;20205;-46
2022/05/12 10:42:40;;;;;;;2.03;0.83;;;24.30;39.00;;;26.18;32.68;101657.09;5040552;28;20202;-48
2022/05/12 10:45:24;;;;;;;2.10;0.77;;;24.30;39.00;;;26.20;32.13;101655.78;5040254;28;20222;-46
2022/05/12 10:48:22;;;;;;;1.17;0.70;;;24.30;39.00;;;26.18;32.49;101654.41;5039544;28;21017;-47